Serenade Of The Seas — C6FV8 — position and weather

sailwx.info

Track history (hours):
 
Tides and Currents Weather Stations Pressure Air Temp Water Temp Dewpoint Dewpoint Depression Visibility Wind Speed Wind Dir Waves Ship Positions

Serenade Of The Seas

Operator: Royal Caribbean Cruises Ltd

Last reported at 2019-Sep-19 06:00 UTC. Time now 2019-Sep-21 00:25 UTC.
Position N 43°48' W 064°18'.

Length 294 m; draft 8.6 m.

Type: Ship. MMSI: 311492000.

Wind from 040 at 18 knots

Barometer 1019.0 mb
Air temperature 12.0 ° C
Water temperature 16.0 ° C

Date/timePositionNaut miles runAvg speedWind from/ knotsBaromVisibWave heightAir tempDewpointWater temp
2019-Sep-19 06:00N 43°48' W 064°18'56 8.4 040 / 181019.0 12.0 16.0
2019-Sep-18 23:24N 44°33' W 063°32'513.3
2019-Sep-18 23:01N 44°38' W 063°33'1 1.3
2019-Sep-18 22:28N 44°38' W 063°34'0 0.0
2019-Sep-18 21:58N 44°38' W 063°34'0 0.0
2019-Sep-18 21:28N 44°38' W 063°34'0 0.0
2019-Sep-18 20:58N 44°38' W 063°34'0 0.0
2019-Sep-18 20:28N 44°38' W 063°34'0 0.0
2019-Sep-18 19:55N 44°38' W 063°34'0 0.0
2019-Sep-18 19:28N 44°38' W 063°34'0 0.0
2019-Sep-18 18:58N 44°38' W 063°34'0 0.0
2019-Sep-18 18:28N 44°38' W 063°34'0 0.0
2019-Sep-18 17:58N 44°38' W 063°34'0 0.0
2019-Sep-18 17:28N 44°38' W 063°34'0 0.0
2019-Sep-18 16:58N 44°38' W 063°34'0 0.0
2019-Sep-18 16:28N 44°38' W 063°34'0 0.0
2019-Sep-18 15:58N 44°38' W 063°34'0 0.0
2019-Sep-18 15:28N 44°38' W 063°34'0 0.0
2019-Sep-18 14:58N 44°38' W 063°34'0 0.0
2019-Sep-18 14:25N 44°38' W 063°34'0 0.0
2019-Sep-18 13:58N 44°38' W 063°34'0 0.0
2019-Sep-18 13:30N 44°38' W 063°34'2 3.8
2019-Sep-18 13:00N 44°37' W 063°33'713.1
2019-Sep-18 12:30N 44°30' W 063°30'916.3
2019-Sep-18 11:58N 44°23' W 063°23'211 7.0
2019-Sep-17 06:00N 43°48' W 068°12'138 4.4 340 / 151010.0 15.0 15.0
2019-Sep-15 22:47N 42°25' W 070°42'3 8.3
2019-Sep-15 22:26N 42°24' W 070°46'4 8.3
2019-Sep-15 21:55N 42°23' W 070°52'7 0.6
2019-Sep-15 10:14N 42°20' W 070°60'711.1
2019-Sep-15 09:38N 42°23' W 070°52'110.3
2019-Sep-15 09:30N 42°24' W 070°51'6618.8
2019-Sep-15 06:00N 41°48' W 069°36'47319.7 230 / 221015.0 18.0 17.0
2019-Sep-14 06:00N 34°36' W 065°30'78 3.2 090 / 471018.0 25.0 29.0
2019-Sep-13 06:00N 33°24' W 064°54'60519.1 230 / 41013.0 27.0 29.0
2019-Sep-11 22:16N 42°22' W 070°46'518.4
2019-Sep-11 21:59N 42°23' W 070°53'1 0.1
2019-Sep-11 08:49N 42°23' W 070°54'310.3
2019-Sep-11 08:30N 42°24' W 070°50'4618.3
2019-Sep-11 06:00N 42°30' W 069°48'41617.3 200 / 301015.0 18.0 19.0
2019-Sep-10 06:00N 44°54' W 060°48'28912.1 260 / 141019.0 15.0 16.0
2019-Sep-09 06:00N 49°12' W 064°00'   320 / 151010.0 11.0 8.0
Track history (hours):
 
Tides and Currents Weather Stations Pressure Air Temp Water Temp Dewpoint Dewpoint Depression Visibility Wind Speed Wind Dir Waves Ship Positions

Serenade Of The Seas

Operator: Royal Caribbean Cruises Ltd

Last reported at 2019-Sep-19 06:00 UTC. Time now 2019-Sep-21 00:25 UTC.
Position N 43°48' W 064°18'.

Length 294 m; draft 8.6 m.

Type: Ship. MMSI: 311492000.

Wind from 040 at 18 knots

Barometer 1019.0 mb
Air temperature 12.0 ° C
Water temperature 16.0 ° C

Date/timePositionNaut miles runAvg speedWind from/ knotsBaromVisibWave heightAir tempDewpointWater temp
2019-Sep-19 06:00N 43°48' W 064°18'56 8.4 040 / 181019.0 12.0 16.0
2019-Sep-18 23:24N 44°33' W 063°32'513.3
2019-Sep-18 23:01N 44°38' W 063°33'1 1.3
2019-Sep-18 22:28N 44°38' W 063°34'0 0.0
2019-Sep-18 21:58N 44°38' W 063°34'0 0.0
2019-Sep-18 21:28N 44°38' W 063°34'0 0.0
2019-Sep-18 20:58N 44°38' W 063°34'0 0.0
2019-Sep-18 20:28N 44°38' W 063°34'0 0.0
2019-Sep-18 19:55N 44°38' W 063°34'0 0.0
2019-Sep-18 19:28N 44°38' W 063°34'0 0.0
2019-Sep-18 18:58N 44°38' W 063°34'0 0.0
2019-Sep-18 18:28N 44°38' W 063°34'0 0.0
2019-Sep-18 17:58N 44°38' W 063°34'0 0.0
2019-Sep-18 17:28N 44°38' W 063°34'0 0.0
2019-Sep-18 16:58N 44°38' W 063°34'0 0.0
2019-Sep-18 16:28N 44°38' W 063°34'0 0.0
2019-Sep-18 15:58N 44°38' W 063°34'0 0.0
2019-Sep-18 15:28N 44°38' W 063°34'0 0.0
2019-Sep-18 14:58N 44°38' W 063°34'0 0.0
2019-Sep-18 14:25N 44°38' W 063°34'0 0.0
2019-Sep-18 13:58N 44°38' W 063°34'0 0.0
2019-Sep-18 13:30N 44°38' W 063°34'2 3.8
2019-Sep-18 13:00N 44°37' W 063°33'713.1
2019-Sep-18 12:30N 44°30' W 063°30'916.3
2019-Sep-18 11:58N 44°23' W 063°23'211 7.0
2019-Sep-17 06:00N 43°48' W 068°12'138 4.4 340 / 151010.0 15.0 15.0
2019-Sep-15 22:47N 42°25' W 070°42'3 8.3
2019-Sep-15 22:26N 42°24' W 070°46'4 8.3
2019-Sep-15 21:55N 42°23' W 070°52'7 0.6
2019-Sep-15 10:14N 42°20' W 070°60'711.1
2019-Sep-15 09:38N 42°23' W 070°52'110.3
2019-Sep-15 09:30N 42°24' W 070°51'6618.8
2019-Sep-15 06:00N 41°48' W 069°36'47319.7 230 / 221015.0 18.0 17.0
2019-Sep-14 06:00N 34°36' W 065°30'78 3.2 090 / 471018.0 25.0 29.0
2019-Sep-13 06:00N 33°24' W 064°54'60519.1 230 / 41013.0 27.0 29.0
2019-Sep-11 22:16N 42°22' W 070°46'518.4
2019-Sep-11 21:59N 42°23' W 070°53'1 0.1
2019-Sep-11 08:49N 42°23' W 070°54'310.3
2019-Sep-11 08:30N 42°24' W 070°50'4618.3
2019-Sep-11 06:00N 42°30' W 069°48'41617.3 200 / 301015.0 18.0 19.0
2019-Sep-10 06:00N 44°54' W 060°48'28912.1 260 / 141019.0 15.0 16.0
2019-Sep-09 06:00N 49°12' W 064°00'   320 / 151010.0 11.0 8.0

Dump ship's entire track history